Terminal Aerodrome Forecast
Issued by NWS Shreveport, LA

Current Version | Previous Version | Text Only | Print | Product List | Glossary On
Versions: 1 2 3 4 5 6 7 8 9 10 11
000
FTUS44 KSHV 291145
TAFTXK
TAF
KTXK 291145Z 2912/3012 VRB03KT P6SM VCSH BKN150
     FM291600 20006KT P6SM BKN100
     FM291900 20006KT P6SM VCSH BKN100
     FM300300 15003KT P6SM BKN150=

USA.gov is the U.S. government's official web portal to all federal, state and local government web resources and services.